DWI6251 TTPP-MDSD
Flight info
| Callsign | DWI6251 |
|---|---|
| Flight time | 1h 57m |
| Altitude | 38000 |
| Route | POS UG449 ANADA DCT NEGON UL337 KARIB KARIB2G |
| Aircraft | B38M/M-SDE1FGHILORVWXY/HB1 |
Departure
| Time | 2026-05-09 00:42 |
|---|---|
| Airport | Piarco International Airport (TTPP) |
Arrival
| Time | 2026-05-09 02:39 |
|---|---|
| Airport | Las Américas International Airport (MDSD) |
| Time | Latitude | Longitude | Altitude | Speed | Heading |
|---|---|---|---|---|---|
| 2026-05-09 00:20 | 10.60034 | -61.34099 | 19 ft | 0 kts | 136° |
| 2026-05-09 00:28 | 10.60040 | -61.34105 | 19 ft | 2 kts | 136° |
| 2026-05-09 00:28 | 10.60052 | -61.34117 | 22 ft | 2 kts | 135° |
| 2026-05-09 00:28 | 10.60064 | -61.34129 | 22 ft | 2 kts | 140° |
| 2026-05-09 00:29 | 10.60077 | -61.34138 | 22 ft | 2 kts | 156° |
| 2026-05-09 00:29 | 10.60093 | -61.34142 | 20 ft | 2 kts | 180° |
| 2026-05-09 00:29 | 10.60108 | -61.34137 | 21 ft | 2 kts | 232° |
| 2026-05-09 00:29 | 10.60116 | -61.34126 | 19 ft | 1 kts | 237° |
| 2026-05-09 00:33 | 10.60112 | -61.34132 | 20 ft | 2 kts | 237° |
| 2026-05-09 00:33 | 10.60098 | -61.34154 | 20 ft | 5 kts | 236° |
| 2026-05-09 00:34 | 10.60065 | -61.34180 | 19 ft | 7 kts | 198° |
| 2026-05-09 00:34 | 10.60006 | -61.34184 | 19 ft | 10 kts | 179° |
| 2026-05-09 00:34 | 10.59930 | -61.34183 | 19 ft | 12 kts | 180° |
| 2026-05-09 00:34 | 10.59838 | -61.34183 | 19 ft | 14 kts | 180° |
| 2026-05-09 00:35 | 10.59765 | -61.34183 | 19 ft | 11 kts | 180° |
| 2026-05-09 00:35 | 10.59714 | -61.34204 | 19 ft | 8 kts | 243° |
| 2026-05-09 00:35 | 10.59707 | -61.34268 | 19 ft | 10 kts | 270° |
| 2026-05-09 00:35 | 10.59707 | -61.34351 | 19 ft | 13 kts | 268° |
| 2026-05-09 00:36 | 10.59703 | -61.34445 | 19 ft | 9 kts | 264° |
| 2026-05-09 00:36 | 10.59679 | -61.34512 | 19 ft | 11 kts | 228° |
| 2026-05-09 00:36 | 10.59620 | -61.34528 | 19 ft | 8 kts | 179° |
| 2026-05-09 00:36 | 10.59550 | -61.34528 | 19 ft | 11 kts | 180° |
| 2026-05-09 00:37 | 10.59467 | -61.34528 | 21 ft | 8 kts | 180° |
| 2026-05-09 00:37 | 10.59421 | -61.34551 | 20 ft | 9 kts | 240° |
| 2026-05-09 00:37 | 10.59410 | -61.34616 | 20 ft | 10 kts | 268° |
| 2026-05-09 00:37 | 10.59400 | -61.34696 | 20 ft | 13 kts | 253° |
| 2026-05-09 00:38 | 10.59374 | -61.34790 | 20 ft | 15 kts | 255° |
| 2026-05-09 00:38 | 10.59353 | -61.34874 | 20 ft | 12 kts | 264° |
| 2026-05-09 00:38 | 10.59351 | -61.34967 | 19 ft | 14 kts | 270° |
| 2026-05-09 00:38 | 10.59351 | -61.35061 | 19 ft | 11 kts | 270° |
| 2026-05-09 00:39 | 10.59351 | -61.35135 | 19 ft | 5 kts | 270° |
| 2026-05-09 00:39 | 10.59361 | -61.35177 | 20 ft | 7 kts | 304° |
| 2026-05-09 00:39 | 10.59409 | -61.35194 | 19 ft | 6 kts | 358° |
| 2026-05-09 00:39 | 10.59454 | -61.35194 | 19 ft | 8 kts | 5° |
| 2026-05-09 00:40 | 10.59504 | -61.35181 | 20 ft | 5 kts | 9° |
| 2026-05-09 00:40 | 10.59533 | -61.35162 | 19 ft | 6 kts | 71° |
| 2026-05-09 00:40 | 10.59534 | -61.35126 | 19 ft | 6 kts | 90° |
| 2026-05-09 00:41 | 10.59535 | -61.34548 | 19 ft | 95 kts | 90° |
| 2026-05-09 00:41 | 10.59538 | -61.33713 | 19 ft | 141 kts | 90° |
| 2026-05-09 00:41 | 10.59552 | -61.32596 | 87 ft | 169 kts | 88° |
| 2026-05-09 00:41 | 10.59577 | -61.31399 | 556 ft | 176 kts | 89° |
| 2026-05-09 00:42 | 10.59607 | -61.30159 | 1121 ft | 175 kts | 88° |
| 2026-05-09 00:42 | 10.59608 | -61.28924 | 1714 ft | 177 kts | 89° |
| 2026-05-09 00:42 | 10.59581 | -61.27602 | 2146 ft | 200 kts | 89° |
| 2026-05-09 00:42 | 10.59559 | -61.26102 | 2563 ft | 225 kts | 90° |
| 2026-05-09 00:43 | 10.59541 | -61.24434 | 3114 ft | 245 kts | 89° |
| 2026-05-09 00:43 | 10.59531 | -61.22645 | 3748 ft | 259 kts | 89° |
| 2026-05-09 00:43 | 10.59541 | -61.20783 | 4563 ft | 265 kts | 83° |
| 2026-05-09 00:43 | 10.60113 | -61.19028 | 5358 ft | 268 kts | 56° |
| 2026-05-09 00:44 | 10.61449 | -61.17703 | 6213 ft | 270 kts | 29° |
| 2026-05-09 00:44 | 10.63226 | -61.17143 | 6970 ft | 274 kts | 3° |
| 2026-05-09 00:44 | 10.65134 | -61.17383 | 7747 ft | 279 kts | 345° |
| 2026-05-09 00:44 | 10.66917 | -61.18158 | 8502 ft | 284 kts | 331° |
| 2026-05-09 00:45 | 10.68596 | -61.19271 | 9257 ft | 289 kts | 328° |
| 2026-05-09 00:45 | 10.70287 | -61.20411 | 10036 ft | 293 kts | 328° |
| 2026-05-09 00:45 | 10.72011 | -61.21568 | 10524 ft | 307 kts | 328° |
| 2026-05-09 00:45 | 10.73835 | -61.22792 | 11046 ft | 319 kts | 328° |
| 2026-05-09 00:46 | 10.75704 | -61.24047 | 11850 ft | 320 kts | 328° |
| 2026-05-09 00:46 | 10.77551 | -61.25288 | 12641 ft | 324 kts | 328° |
| 2026-05-09 00:46 | 10.79438 | -61.26555 | 13457 ft | 327 kts | 328° |
| 2026-05-09 00:46 | 10.81351 | -61.27841 | 14220 ft | 330 kts | 328° |
| 2026-05-09 00:47 | 10.83283 | -61.29139 | 14954 ft | 334 kts | 327° |
| 2026-05-09 00:47 | 10.85234 | -61.30450 | 15676 ft | 338 kts | 327° |
| 2026-05-09 00:47 | 10.87181 | -61.31758 | 16393 ft | 341 kts | 327° |
| 2026-05-09 00:47 | 10.89181 | -61.33103 | 17094 ft | 345 kts | 327° |
| 2026-05-09 00:48 | 10.91194 | -61.34457 | 17780 ft | 348 kts | 327° |
| 2026-05-09 00:48 | 10.93236 | -61.35830 | 18428 ft | 352 kts | 327° |
| 2026-05-09 00:48 | 10.95265 | -61.37195 | 18997 ft | 355 kts | 326° |
| 2026-05-09 00:48 | 10.97344 | -61.38594 | 19569 ft | 358 kts | 326° |
| 2026-05-09 00:49 | 10.99439 | -61.40004 | 20138 ft | 362 kts | 325° |
| 2026-05-09 00:49 | 11.01518 | -61.41402 | 20680 ft | 365 kts | 325° |
| 2026-05-09 00:49 | 11.03657 | -61.42842 | 21222 ft | 369 kts | 325° |
| 2026-05-09 00:49 | 11.05813 | -61.44293 | 21760 ft | 373 kts | 324° |
| 2026-05-09 00:50 | 11.08000 | -61.45765 | 22297 ft | 377 kts | 324° |
| 2026-05-09 00:50 | 11.10175 | -61.47229 | 22813 ft | 380 kts | 324° |
| 2026-05-09 00:50 | 11.12395 | -61.48725 | 23343 ft | 384 kts | 324° |
| 2026-05-09 00:50 | 11.14635 | -61.50233 | 23801 ft | 387 kts | 324° |
| 2026-05-09 00:51 | 11.16864 | -61.51735 | 24269 ft | 389 kts | 324° |
| 2026-05-09 00:51 | 11.19137 | -61.53266 | 24721 ft | 392 kts | 324° |
| 2026-05-09 00:51 | 11.21429 | -61.54811 | 25174 ft | 394 kts | 324° |
| 2026-05-09 00:51 | 11.23720 | -61.56356 | 25622 ft | 396 kts | 324° |
| 2026-05-09 00:52 | 11.26000 | -61.57893 | 26053 ft | 398 kts | 324° |
| 2026-05-09 00:52 | 11.28322 | -61.59459 | 26476 ft | 401 kts | 324° |
| 2026-05-09 00:52 | 11.30667 | -61.61041 | 26895 ft | 404 kts | 324° |
| 2026-05-09 00:52 | 11.33025 | -61.62632 | 27298 ft | 406 kts | 324° |
| 2026-05-09 00:53 | 11.35362 | -61.64209 | 27703 ft | 409 kts | 324° |
| 2026-05-09 00:53 | 11.37749 | -61.65820 | 28104 ft | 411 kts | 324° |
| 2026-05-09 00:53 | 11.40147 | -61.67439 | 28489 ft | 414 kts | 324° |
| 2026-05-09 00:53 | 11.42544 | -61.69058 | 28873 ft | 416 kts | 324° |
| 2026-05-09 00:54 | 11.44973 | -61.70698 | 29256 ft | 419 kts | 324° |
| 2026-05-09 00:54 | 11.47389 | -61.72330 | 29623 ft | 422 kts | 324° |
| 2026-05-09 00:54 | 11.49849 | -61.73993 | 29980 ft | 424 kts | 324° |
| 2026-05-09 00:54 | 11.52318 | -61.75661 | 30290 ft | 426 kts | 324° |
| 2026-05-09 00:55 | 11.54801 | -61.77340 | 30617 ft | 428 kts | 324° |
| 2026-05-09 00:55 | 11.57266 | -61.79006 | 30939 ft | 430 kts | 324° |
| 2026-05-09 00:55 | 11.59776 | -61.80703 | 31240 ft | 432 kts | 324° |
| 2026-05-09 00:55 | 11.62293 | -61.82406 | 31566 ft | 433 kts | 324° |
| 2026-05-09 00:56 | 11.64784 | -61.84092 | 31874 ft | 435 kts | 324° |
| 2026-05-09 00:56 | 11.67315 | -61.85804 | 32186 ft | 437 kts | 324° |
| 2026-05-09 00:56 | 11.69858 | -61.87525 | 32483 ft | 439 kts | 324° |
| 2026-05-09 00:56 | 11.72418 | -61.89258 | 32781 ft | 441 kts | 324° |
| 2026-05-09 00:57 | 11.74978 | -61.90992 | 33083 ft | 443 kts | 324° |
| 2026-05-09 00:57 | 11.77555 | -61.92737 | 33363 ft | 444 kts | 324° |
| 2026-05-09 00:57 | 11.80109 | -61.94467 | 33643 ft | 446 kts | 324° |
| 2026-05-09 00:57 | 11.82715 | -61.96233 | 33918 ft | 448 kts | 324° |
| 2026-05-09 00:58 | 11.85322 | -61.98000 | 34178 ft | 450 kts | 324° |
| 2026-05-09 00:58 | 11.87908 | -61.99753 | 34474 ft | 450 kts | 324° |
| 2026-05-09 00:58 | 11.90524 | -62.01527 | 34791 ft | 449 kts | 324° |
| 2026-05-09 00:58 | 11.93099 | -62.03274 | 35113 ft | 448 kts | 324° |
| 2026-05-09 00:59 | 11.95694 | -62.05034 | 35472 ft | 446 kts | 324° |
| 2026-05-09 00:59 | 11.98287 | -62.06794 | 35820 ft | 445 kts | 324° |
| 2026-05-09 00:59 | 12.00840 | -62.08527 | 36151 ft | 443 kts | 324° |
| 2026-05-09 00:59 | 12.03419 | -62.10278 | 36480 ft | 442 kts | 324° |
| 2026-05-09 01:00 | 12.05980 | -62.12017 | 36796 ft | 441 kts | 324° |
| 2026-05-09 01:00 | 12.08536 | -62.13752 | 37101 ft | 440 kts | 324° |
| 2026-05-09 01:00 | 12.11055 | -62.15464 | 37410 ft | 438 kts | 324° |
| 2026-05-09 01:00 | 12.13600 | -62.17193 | 37696 ft | 437 kts | 324° |
| 2026-05-09 01:01 | 12.16138 | -62.18919 | 37956 ft | 437 kts | 324° |
| 2026-05-09 01:01 | 12.18644 | -62.20622 | 37993 ft | 436 kts | 324° |
| 2026-05-09 01:01 | 12.23671 | -62.24041 | 37976 ft | 432 kts | 324° |
| 2026-05-09 01:02 | 12.28695 | -62.27459 | 37973 ft | 433 kts | 325° |
| 2026-05-09 01:02 | 12.33689 | -62.30858 | 37972 ft | 433 kts | 325° |
| 2026-05-09 01:03 | 12.38715 | -62.34281 | 37980 ft | 433 kts | 325° |
| 2026-05-09 01:03 | 12.43705 | -62.37681 | 37975 ft | 433 kts | 325° |
| 2026-05-09 01:04 | 12.48725 | -62.41103 | 37981 ft | 433 kts | 326° |
| 2026-05-09 01:04 | 12.53723 | -62.44512 | 37975 ft | 433 kts | 326° |
| 2026-05-09 01:05 | 12.58752 | -62.47943 | 37975 ft | 433 kts | 326° |
| 2026-05-09 01:06 | 12.66258 | -62.53067 | 37980 ft | 433 kts | 326° |
| 2026-05-09 01:06 | 12.71284 | -62.56501 | 37981 ft | 434 kts | 326° |
| 2026-05-09 01:07 | 12.76284 | -62.59918 | 37978 ft | 433 kts | 326° |
| 2026-05-09 01:07 | 12.81313 | -62.63357 | 37984 ft | 434 kts | 326° |
| 2026-05-09 01:08 | 12.86310 | -62.66775 | 37982 ft | 434 kts | 326° |
| 2026-05-09 01:08 | 12.91353 | -62.70227 | 37986 ft | 434 kts | 327° |
| 2026-05-09 01:09 | 12.96366 | -62.73660 | 37986 ft | 434 kts | 327° |
| 2026-05-09 01:09 | 13.01370 | -62.77088 | 37987 ft | 435 kts | 327° |
| 2026-05-09 01:10 | 13.06406 | -62.80541 | 37991 ft | 435 kts | 327° |
| 2026-05-09 01:10 | 13.11419 | -62.83979 | 37984 ft | 435 kts | 327° |
| 2026-05-09 01:11 | 13.16463 | -62.87439 | 37987 ft | 435 kts | 327° |
| 2026-05-09 01:11 | 13.21468 | -62.90875 | 37987 ft | 435 kts | 327° |
| 2026-05-09 01:12 | 13.26505 | -62.94335 | 37988 ft | 434 kts | 327° |
| 2026-05-09 01:12 | 13.31541 | -62.97796 | 37988 ft | 434 kts | 327° |
| 2026-05-09 01:13 | 13.36557 | -63.01245 | 37990 ft | 434 kts | 327° |
| 2026-05-09 01:13 | 13.41555 | -63.04682 | 37992 ft | 434 kts | 327° |
| 2026-05-09 01:14 | 13.46549 | -63.08119 | 37996 ft | 433 kts | 328° |
| 2026-05-09 01:14 | 13.51562 | -63.11571 | 37996 ft | 432 kts | 328° |
| 2026-05-09 01:15 | 13.56534 | -63.14996 | 37997 ft | 432 kts | 328° |
| 2026-05-09 01:15 | 13.61528 | -63.18439 | 37996 ft | 431 kts | 328° |
| 2026-05-09 01:16 | 13.66476 | -63.21851 | 37994 ft | 430 kts | 328° |
| 2026-05-09 01:16 | 13.71469 | -63.25296 | 37998 ft | 429 kts | 328° |
| 2026-05-09 01:17 | 13.78881 | -63.30414 | 37997 ft | 428 kts | 328° |
| 2026-05-09 01:17 | 13.83807 | -63.33817 | 37998 ft | 428 kts | 328° |
| 2026-05-09 01:18 | 13.88743 | -63.37230 | 38000 ft | 428 kts | 328° |
| 2026-05-09 01:18 | 13.93698 | -63.40656 | 38004 ft | 428 kts | 329° |
| 2026-05-09 01:19 | 13.98640 | -63.44076 | 38002 ft | 428 kts | 328° |
| 2026-05-09 01:19 | 14.03585 | -63.47500 | 38001 ft | 428 kts | 329° |
| 2026-05-09 01:20 | 14.08536 | -63.50930 | 38002 ft | 429 kts | 329° |
| 2026-05-09 01:20 | 14.13469 | -63.54349 | 38003 ft | 429 kts | 329° |
| 2026-05-09 01:21 | 14.18407 | -63.57773 | 38001 ft | 429 kts | 329° |
| 2026-05-09 01:21 | 14.23379 | -63.61222 | 38002 ft | 429 kts | 329° |
| 2026-05-09 01:22 | 14.28295 | -63.64635 | 38009 ft | 429 kts | 329° |
| 2026-05-09 01:22 | 14.32425 | -63.67504 | 38008 ft | 429 kts | 329° |
| 2026-05-09 01:23 | 14.38204 | -63.71520 | 38004 ft | 429 kts | 329° |
| 2026-05-09 01:23 | 14.43143 | -63.74954 | 38006 ft | 430 kts | 329° |
| 2026-05-09 01:24 | 14.47274 | -63.77827 | 38005 ft | 430 kts | 329° |
| 2026-05-09 01:24 | 14.52254 | -63.81294 | 38002 ft | 430 kts | 329° |
| 2026-05-09 01:25 | 14.57190 | -63.84731 | 38009 ft | 430 kts | 329° |
| 2026-05-09 01:25 | 14.62135 | -63.88177 | 38009 ft | 430 kts | 329° |
| 2026-05-09 01:26 | 14.67098 | -63.91638 | 38009 ft | 430 kts | 329° |
| 2026-05-09 01:26 | 14.72065 | -63.95102 | 38010 ft | 430 kts | 329° |
| 2026-05-09 01:27 | 14.77011 | -63.98554 | 38009 ft | 430 kts | 329° |
| 2026-05-09 01:27 | 14.81950 | -64.02003 | 38009 ft | 430 kts | 329° |
| 2026-05-09 01:28 | 14.86926 | -64.05480 | 38013 ft | 430 kts | 329° |
| 2026-05-09 01:28 | 14.91890 | -64.08950 | 38014 ft | 430 kts | 329° |
| 2026-05-09 01:29 | 14.96822 | -64.12402 | 38015 ft | 430 kts | 328° |
| 2026-05-09 01:29 | 14.99111 | -64.14418 | 38000 ft | 435 kts | 314° |
| 2026-05-09 01:29 | 15.00821 | -64.17035 | 38022 ft | 442 kts | 301° |
| 2026-05-09 01:30 | 15.03474 | -64.22784 | 38014 ft | 446 kts | 299° |
| 2026-05-09 01:30 | 15.06060 | -64.28654 | 38016 ft | 446 kts | 298° |
| 2026-05-09 01:31 | 15.08592 | -64.34502 | 38017 ft | 446 kts | 298° |
| 2026-05-09 01:31 | 15.11110 | -64.40339 | 38012 ft | 446 kts | 298° |
| 2026-05-09 01:32 | 15.13648 | -64.46225 | 38013 ft | 446 kts | 298° |
| 2026-05-09 01:32 | 15.16165 | -64.52069 | 38020 ft | 446 kts | 298° |
| 2026-05-09 01:33 | 15.18699 | -64.57956 | 38019 ft | 446 kts | 298° |
| 2026-05-09 01:33 | 15.21216 | -64.63809 | 38017 ft | 446 kts | 298° |
| 2026-05-09 01:34 | 15.23730 | -64.69660 | 38018 ft | 446 kts | 298° |
| 2026-05-09 01:34 | 15.26256 | -64.75546 | 38016 ft | 446 kts | 298° |
| 2026-05-09 01:35 | 15.28752 | -64.81364 | 38019 ft | 446 kts | 298° |
| 2026-05-09 01:35 | 15.31282 | -64.87268 | 38019 ft | 445 kts | 298° |
| 2026-05-09 01:36 | 15.33787 | -64.93116 | 38017 ft | 445 kts | 298° |
| 2026-05-09 01:36 | 15.36290 | -64.98967 | 38019 ft | 445 kts | 298° |
| 2026-05-09 01:37 | 15.38804 | -65.04848 | 38019 ft | 445 kts | 298° |
| 2026-05-09 01:37 | 15.41301 | -65.10695 | 38015 ft | 445 kts | 298° |
| 2026-05-09 01:38 | 15.43793 | -65.16533 | 38020 ft | 444 kts | 298° |
| 2026-05-09 01:38 | 15.46293 | -65.22398 | 38020 ft | 444 kts | 298° |
| 2026-05-09 01:39 | 15.48773 | -65.28219 | 38018 ft | 444 kts | 298° |
| 2026-05-09 01:39 | 15.51259 | -65.34057 | 38020 ft | 443 kts | 298° |
| 2026-05-09 01:40 | 15.53752 | -65.39922 | 38020 ft | 443 kts | 298° |
| 2026-05-09 01:40 | 15.56224 | -65.45738 | 38021 ft | 443 kts | 298° |
| 2026-05-09 01:41 | 15.58709 | -65.51591 | 38022 ft | 443 kts | 298° |
| 2026-05-09 01:41 | 15.61179 | -65.57415 | 38023 ft | 442 kts | 298° |
| 2026-05-09 01:42 | 15.63659 | -65.63267 | 38022 ft | 442 kts | 298° |
| 2026-05-09 01:42 | 15.66123 | -65.69083 | 38023 ft | 442 kts | 298° |
| 2026-05-09 01:43 | 15.68602 | -65.74943 | 38020 ft | 442 kts | 298° |
| 2026-05-09 01:43 | 15.71062 | -65.80762 | 38019 ft | 442 kts | 298° |
| 2026-05-09 01:44 | 15.73532 | -65.86612 | 38020 ft | 441 kts | 297° |
| 2026-05-09 01:44 | 15.75985 | -65.92425 | 38024 ft | 442 kts | 297° |
| 2026-05-09 01:45 | 15.78456 | -65.98285 | 38025 ft | 441 kts | 297° |
| 2026-05-09 01:45 | 15.80907 | -66.04102 | 38021 ft | 441 kts | 297° |
| 2026-05-09 01:46 | 15.83360 | -66.09930 | 38024 ft | 442 kts | 297° |
| 2026-05-09 01:46 | 15.85814 | -66.15766 | 38024 ft | 441 kts | 297° |
| 2026-05-09 01:47 | 15.88275 | -66.21625 | 38027 ft | 441 kts | 297° |
| 2026-05-09 01:47 | 15.90726 | -66.27464 | 38029 ft | 441 kts | 297° |
| 2026-05-09 01:48 | 15.93169 | -66.33287 | 38030 ft | 441 kts | 297° |
| 2026-05-09 01:48 | 15.95615 | -66.39126 | 38028 ft | 441 kts | 297° |
| 2026-05-09 01:49 | 15.98074 | -66.44999 | 38030 ft | 441 kts | 297° |
| 2026-05-09 01:49 | 16.00506 | -66.50814 | 38027 ft | 441 kts | 297° |
| 2026-05-09 01:50 | 16.02955 | -66.56673 | 38030 ft | 441 kts | 297° |
| 2026-05-09 01:50 | 16.05404 | -66.62538 | 38024 ft | 441 kts | 296° |
| 2026-05-09 01:51 | 16.07841 | -66.68379 | 38028 ft | 441 kts | 296° |
| 2026-05-09 01:51 | 16.10270 | -66.74208 | 38030 ft | 441 kts | 296° |
| 2026-05-09 01:52 | 16.12714 | -66.80077 | 38031 ft | 441 kts | 296° |
| 2026-05-09 01:52 | 16.15145 | -66.85919 | 38025 ft | 441 kts | 296° |
| 2026-05-09 01:53 | 16.17587 | -66.91795 | 38026 ft | 441 kts | 296° |
| 2026-05-09 01:53 | 16.20008 | -66.97625 | 38027 ft | 441 kts | 296° |
| 2026-05-09 01:54 | 16.22446 | -67.03499 | 38026 ft | 441 kts | 296° |
| 2026-05-09 01:54 | 16.24861 | -67.09327 | 38027 ft | 441 kts | 296° |
| 2026-05-09 01:55 | 16.27293 | -67.15197 | 38023 ft | 441 kts | 296° |
| 2026-05-09 01:55 | 16.29711 | -67.21042 | 38024 ft | 441 kts | 296° |
| 2026-05-09 01:56 | 16.32143 | -67.26925 | 38021 ft | 441 kts | 296° |
| 2026-05-09 01:56 | 16.34559 | -67.32773 | 38024 ft | 441 kts | 296° |
| 2026-05-09 01:57 | 16.36991 | -67.38667 | 38026 ft | 441 kts | 296° |
| 2026-05-09 01:57 | 16.39404 | -67.44520 | 38024 ft | 441 kts | 296° |
| 2026-05-09 01:58 | 16.41820 | -67.50385 | 38024 ft | 441 kts | 296° |
| 2026-05-09 01:58 | 16.44232 | -67.56246 | 38020 ft | 442 kts | 296° |
| 2026-05-09 01:59 | 16.46658 | -67.62147 | 38023 ft | 442 kts | 296° |
| 2026-05-09 01:59 | 16.49063 | -67.68000 | 38025 ft | 442 kts | 296° |
| 2026-05-09 02:00 | 16.51482 | -67.73893 | 38026 ft | 442 kts | 296° |
| 2026-05-09 02:00 | 16.53906 | -67.79804 | 38028 ft | 442 kts | 295° |
| 2026-05-09 02:01 | 16.56300 | -67.85646 | 38029 ft | 442 kts | 295° |
| 2026-05-09 02:01 | 16.58721 | -67.91559 | 38023 ft | 442 kts | 295° |
| 2026-05-09 02:02 | 16.61123 | -67.97433 | 38024 ft | 442 kts | 295° |
| 2026-05-09 02:02 | 16.62539 | -68.00261 | 38006 ft | 437 kts | 309° |
| 2026-05-09 02:02 | 16.64424 | -68.02731 | 38033 ft | 436 kts | 310° |
| 2026-05-09 02:03 | 16.68215 | -68.07695 | 38033 ft | 437 kts | 311° |
| 2026-05-09 02:03 | 16.72033 | -68.12597 | 38030 ft | 437 kts | 311° |
| 2026-05-09 02:04 | 16.75880 | -68.17518 | 38017 ft | 436 kts | 311° |
| 2026-05-09 02:04 | 16.77759 | -68.19923 | 37735 ft | 426 kts | 311° |
| 2026-05-09 02:04 | 16.79610 | -68.22293 | 37474 ft | 417 kts | 311° |
| 2026-05-09 02:05 | 16.81441 | -68.24636 | 37018 ft | 413 kts | 311° |
| 2026-05-09 02:05 | 16.83262 | -68.26968 | 36485 ft | 412 kts | 311° |
| 2026-05-09 02:05 | 16.85047 | -68.29255 | 35977 ft | 410 kts | 311° |
| 2026-05-09 02:05 | 16.86854 | -68.31571 | 35483 ft | 409 kts | 311° |
| 2026-05-09 02:06 | 16.88656 | -68.33881 | 35001 ft | 407 kts | 311° |
| 2026-05-09 02:06 | 16.90430 | -68.36156 | 34509 ft | 406 kts | 311° |
| 2026-05-09 02:06 | 16.92210 | -68.38439 | 34032 ft | 405 kts | 311° |
| 2026-05-09 02:07 | 16.95767 | -68.43004 | 32982 ft | 403 kts | 311° |
| 2026-05-09 02:07 | 16.97514 | -68.45248 | 32521 ft | 401 kts | 311° |
| 2026-05-09 02:07 | 16.99268 | -68.47500 | 32065 ft | 398 kts | 311° |
| 2026-05-09 02:07 | 17.01025 | -68.49757 | 31608 ft | 397 kts | 311° |
| 2026-05-09 02:08 | 17.02760 | -68.51987 | 31161 ft | 395 kts | 311° |
| 2026-05-09 02:08 | 17.04476 | -68.54194 | 30717 ft | 394 kts | 311° |
| 2026-05-09 02:08 | 17.06202 | -68.56413 | 30281 ft | 392 kts | 311° |
| 2026-05-09 02:08 | 17.07928 | -68.58635 | 29793 ft | 391 kts | 311° |
| 2026-05-09 02:09 | 17.09621 | -68.60814 | 29319 ft | 390 kts | 311° |
| 2026-05-09 02:09 | 17.11328 | -68.63012 | 28882 ft | 387 kts | 311° |
| 2026-05-09 02:09 | 17.13028 | -68.65201 | 28483 ft | 384 kts | 311° |
| 2026-05-09 02:09 | 17.14689 | -68.67341 | 28065 ft | 381 kts | 311° |
| 2026-05-09 02:10 | 17.16359 | -68.69492 | 27657 ft | 379 kts | 311° |
| 2026-05-09 02:10 | 17.18021 | -68.71635 | 27249 ft | 377 kts | 311° |
| 2026-05-09 02:10 | 17.19652 | -68.73738 | 26854 ft | 375 kts | 311° |
| 2026-05-09 02:10 | 17.21292 | -68.75853 | 26461 ft | 373 kts | 311° |
| 2026-05-09 02:11 | 17.22933 | -68.77970 | 26064 ft | 372 kts | 311° |
| 2026-05-09 02:11 | 17.24562 | -68.80073 | 25672 ft | 370 kts | 310° |
| 2026-05-09 02:11 | 17.26160 | -68.82137 | 25293 ft | 369 kts | 310° |
| 2026-05-09 02:11 | 17.27780 | -68.84229 | 24905 ft | 368 kts | 310° |
| 2026-05-09 02:12 | 17.29390 | -68.86309 | 24521 ft | 367 kts | 310° |
| 2026-05-09 02:12 | 17.30999 | -68.88387 | 24137 ft | 366 kts | 310° |
| 2026-05-09 02:12 | 17.32593 | -68.90448 | 23755 ft | 364 kts | 309° |
| 2026-05-09 02:12 | 17.34155 | -68.92467 | 23334 ft | 358 kts | 309° |
| 2026-05-09 02:13 | 17.35721 | -68.94491 | 22924 ft | 352 kts | 309° |
| 2026-05-09 02:13 | 17.37237 | -68.96453 | 22562 ft | 345 kts | 310° |
| 2026-05-09 02:13 | 17.38730 | -68.98385 | 22200 ft | 339 kts | 310° |
| 2026-05-09 02:13 | 17.40215 | -69.00307 | 21847 ft | 337 kts | 310° |
| 2026-05-09 02:14 | 17.41721 | -69.02144 | 21464 ft | 336 kts | 313° |
| 2026-05-09 02:14 | 17.43281 | -69.03973 | 21115 ft | 334 kts | 313° |
| 2026-05-09 02:14 | 17.44823 | -69.05792 | 20782 ft | 332 kts | 313° |
| 2026-05-09 02:14 | 17.46350 | -69.07601 | 20443 ft | 330 kts | 313° |
| 2026-05-09 02:15 | 17.47871 | -69.09404 | 20102 ft | 329 kts | 313° |
| 2026-05-09 02:15 | 17.49371 | -69.11184 | 19765 ft | 328 kts | 313° |
| 2026-05-09 02:15 | 17.50869 | -69.12960 | 19425 ft | 327 kts | 314° |
| 2026-05-09 02:15 | 17.52381 | -69.14754 | 19081 ft | 326 kts | 314° |
| 2026-05-09 02:16 | 17.53882 | -69.16536 | 18742 ft | 326 kts | 314° |
| 2026-05-09 02:16 | 17.55371 | -69.18304 | 18404 ft | 325 kts | 313° |
| 2026-05-09 02:16 | 17.56867 | -69.20082 | 18021 ft | 325 kts | 314° |
| 2026-05-09 02:16 | 17.58365 | -69.21861 | 17653 ft | 324 kts | 314° |
| 2026-05-09 02:17 | 17.59853 | -69.23630 | 17312 ft | 322 kts | 314° |
| 2026-05-09 02:17 | 17.61317 | -69.25370 | 16956 ft | 321 kts | 314° |
| 2026-05-09 02:17 | 17.62791 | -69.27124 | 16595 ft | 320 kts | 314° |
| 2026-05-09 02:17 | 17.64267 | -69.28878 | 16253 ft | 318 kts | 314° |
| 2026-05-09 02:18 | 17.65778 | -69.30564 | 15826 ft | 317 kts | 324° |
| 2026-05-09 02:18 | 17.67674 | -69.31620 | 15445 ft | 310 kts | 347° |
| 2026-05-09 02:18 | 17.69768 | -69.32070 | 15110 ft | 306 kts | 352° |
| 2026-05-09 02:18 | 17.71872 | -69.32456 | 14752 ft | 306 kts | 353° |
| 2026-05-09 02:19 | 17.73974 | -69.32817 | 14378 ft | 306 kts | 353° |
| 2026-05-09 02:19 | 17.76060 | -69.33162 | 14013 ft | 307 kts | 354° |
| 2026-05-09 02:19 | 17.78174 | -69.33504 | 13602 ft | 305 kts | 354° |
| 2026-05-09 02:19 | 17.80274 | -69.33841 | 13186 ft | 301 kts | 354° |
| 2026-05-09 02:20 | 17.82311 | -69.34166 | 12812 ft | 296 kts | 354° |
| 2026-05-09 02:20 | 17.84334 | -69.34486 | 12448 ft | 290 kts | 354° |
| 2026-05-09 02:20 | 17.86296 | -69.34797 | 12097 ft | 286 kts | 354° |
| 2026-05-09 02:20 | 17.88248 | -69.35106 | 11747 ft | 282 kts | 354° |
| 2026-05-09 02:21 | 17.90188 | -69.35413 | 11402 ft | 282 kts | 354° |
| 2026-05-09 02:21 | 17.92124 | -69.35719 | 11058 ft | 281 kts | 354° |
| 2026-05-09 02:21 | 17.94068 | -69.36026 | 10714 ft | 282 kts | 354° |
| 2026-05-09 02:21 | 17.96013 | -69.36333 | 10358 ft | 283 kts | 354° |
| 2026-05-09 02:22 | 17.97965 | -69.36642 | 10014 ft | 283 kts | 354° |
| 2026-05-09 02:22 | 17.99898 | -69.36947 | 9633 ft | 284 kts | 354° |
| 2026-05-09 02:22 | 18.01849 | -69.37256 | 9260 ft | 284 kts | 354° |
| 2026-05-09 02:22 | 18.03804 | -69.37564 | 8897 ft | 283 kts | 354° |
| 2026-05-09 02:23 | 18.05737 | -69.37871 | 8543 ft | 282 kts | 354° |
| 2026-05-09 02:23 | 18.07685 | -69.38178 | 8197 ft | 282 kts | 354° |
| 2026-05-09 02:23 | 18.09629 | -69.38486 | 7847 ft | 280 kts | 354° |
| 2026-05-09 02:23 | 18.11516 | -69.38785 | 7506 ft | 275 kts | 354° |
| 2026-05-09 02:24 | 18.13399 | -69.39083 | 7170 ft | 270 kts | 354° |
| 2026-05-09 02:24 | 18.15224 | -69.39373 | 6840 ft | 266 kts | 354° |
| 2026-05-09 02:24 | 18.17047 | -69.39661 | 6517 ft | 265 kts | 354° |
| 2026-05-09 02:24 | 18.18885 | -69.39952 | 6165 ft | 267 kts | 354° |
| 2026-05-09 02:25 | 18.20729 | -69.40244 | 5817 ft | 268 kts | 354° |
| 2026-05-09 02:25 | 18.21952 | -69.40438 | 5598 ft | 268 kts | 354° |
| 2026-05-09 02:25 | 18.24399 | -69.40826 | 5156 ft | 268 kts | 354° |
| 2026-05-09 02:25 | 18.26251 | -69.41120 | 4822 ft | 268 kts | 353° |
| 2026-05-09 02:26 | 18.28089 | -69.41411 | 4473 ft | 265 kts | 353° |
| 2026-05-09 02:26 | 18.29876 | -69.41695 | 4136 ft | 259 kts | 354° |
| 2026-05-09 02:26 | 18.31632 | -69.41973 | 3971 ft | 247 kts | 354° |
| 2026-05-09 02:26 | 18.33284 | -69.42235 | 3946 ft | 236 kts | 354° |
| 2026-05-09 02:27 | 18.34369 | -69.42406 | 3929 ft | 236 kts | 354° |
| 2026-05-09 02:27 | 18.35975 | -69.42661 | 3891 ft | 235 kts | 354° |
| 2026-05-09 02:27 | 18.37596 | -69.42917 | 3867 ft | 235 kts | 354° |
| 2026-05-09 02:27 | 18.39215 | -69.43173 | 3826 ft | 235 kts | 354° |
| 2026-05-09 02:28 | 18.40841 | -69.43431 | 3802 ft | 236 kts | 354° |
| 2026-05-09 02:28 | 18.42450 | -69.43686 | 3770 ft | 235 kts | 354° |
| 2026-05-09 02:28 | 18.45578 | -69.45217 | 3703 ft | 240 kts | 324° |
| 2026-05-09 02:29 | 18.46893 | -69.46297 | 3674 ft | 241 kts | 324° |
| 2026-05-09 02:29 | 18.48196 | -69.47379 | 3636 ft | 240 kts | 324° |
| 2026-05-09 02:29 | 18.49508 | -69.48474 | 3615 ft | 241 kts | 323° |
| 2026-05-09 02:29 | 18.50821 | -69.49575 | 3572 ft | 241 kts | 323° |
| 2026-05-09 02:30 | 18.52136 | -69.50680 | 3527 ft | 241 kts | 323° |
| 2026-05-09 02:30 | 18.53442 | -69.51781 | 3503 ft | 241 kts | 323° |
| 2026-05-09 02:30 | 18.54754 | -69.52887 | 3471 ft | 240 kts | 323° |
| 2026-05-09 02:30 | 18.56047 | -69.53977 | 3447 ft | 240 kts | 323° |
| 2026-05-09 02:31 | 18.57354 | -69.55080 | 3418 ft | 241 kts | 323° |
| 2026-05-09 02:31 | 18.58652 | -69.56175 | 3381 ft | 241 kts | 323° |
| 2026-05-09 02:31 | 18.59958 | -69.57278 | 3335 ft | 241 kts | 323° |
| 2026-05-09 02:31 | 18.61259 | -69.58378 | 3306 ft | 233 kts | 323° |
| 2026-05-09 02:32 | 18.62495 | -69.59421 | 3271 ft | 222 kts | 323° |
| 2026-05-09 02:32 | 18.63656 | -69.60401 | 3277 ft | 210 kts | 323° |
| 2026-05-09 02:32 | 18.64771 | -69.61349 | 3224 ft | 204 kts | 321° |
| 2026-05-09 02:32 | 18.65569 | -69.62568 | 3133 ft | 205 kts | 288° |
| 2026-05-09 02:33 | 18.65656 | -69.64039 | 3050 ft | 205 kts | 257° |
| 2026-05-09 02:33 | 18.65102 | -69.65355 | 3045 ft | 189 kts | 236° |
| 2026-05-09 02:33 | 18.64404 | -69.66514 | 3016 ft | 185 kts | 235° |
| 2026-05-09 02:33 | 18.63709 | -69.67637 | 3011 ft | 184 kts | 235° |
| 2026-05-09 02:34 | 18.62995 | -69.68774 | 3013 ft | 185 kts | 234° |
| 2026-05-09 02:34 | 18.62267 | -69.69920 | 3008 ft | 193 kts | 234° |
| 2026-05-09 02:34 | 18.61511 | -69.71102 | 3012 ft | 199 kts | 234° |
| 2026-05-09 02:34 | 18.60637 | -69.72232 | 2919 ft | 198 kts | 213° |
| 2026-05-09 02:35 | 18.59371 | -69.72674 | 2746 ft | 190 kts | 176° |
| 2026-05-09 02:35 | 18.58090 | -69.72400 | 2597 ft | 187 kts | 160° |
| 2026-05-09 02:35 | 18.56859 | -69.71982 | 2444 ft | 188 kts | 158° |
| 2026-05-09 02:35 | 18.55632 | -69.71552 | 2263 ft | 178 kts | 158° |
| 2026-05-09 02:36 | 18.54527 | -69.71158 | 2079 ft | 163 kts | 157° |
| 2026-05-09 02:36 | 18.53463 | -69.70774 | 1949 ft | 159 kts | 157° |
| 2026-05-09 02:36 | 18.52446 | -69.70413 | 1721 ft | 150 kts | 156° |
| 2026-05-09 02:36 | 18.51472 | -69.70054 | 1483 ft | 146 kts | 155° |
| 2026-05-09 02:37 | 18.50518 | -69.69685 | 1262 ft | 146 kts | 155° |
| 2026-05-09 02:37 | 18.49565 | -69.69305 | 1117 ft | 149 kts | 156° |
| 2026-05-09 02:37 | 18.48589 | -69.68951 | 963 ft | 149 kts | 157° |
| 2026-05-09 02:37 | 18.47609 | -69.68596 | 791 ft | 147 kts | 158° |
| 2026-05-09 02:38 | 18.46663 | -69.68270 | 574 ft | 142 kts | 159° |
| 2026-05-09 02:38 | 18.45709 | -69.67912 | 406 ft | 148 kts | 158° |
| 2026-05-09 02:38 | 18.44753 | -69.67551 | 173 ft | 143 kts | 157° |
| 2026-05-09 02:38 | 18.43823 | -69.67191 | 69 ft | 134 kts | 156° |
| 2026-05-09 02:39 | 18.43127 | -69.66949 | 68 ft | 74 kts | 161° |
| 2026-05-09 02:39 | 18.42732 | -69.66803 | 69 ft | 59 kts | 160° |
| 2026-05-09 02:39 | 18.42389 | -69.66678 | 70 ft | 40 kts | 160° |
| 2026-05-09 02:39 | 18.42253 | -69.66642 | 63 ft | 12 kts | 195° |
| 2026-05-09 02:40 | 18.42212 | -69.66702 | 70 ft | 7 kts | 266° |
| 2026-05-09 02:40 | 18.42234 | -69.66759 | 68 ft | 10 kts | 296° |
| 2026-05-09 02:40 | 18.42276 | -69.66830 | 67 ft | 13 kts | 321° |
| 2026-05-09 02:40 | 18.42370 | -69.66871 | 69 ft | 16 kts | 340° |
| 2026-05-09 02:41 | 18.42486 | -69.66914 | 67 ft | 19 kts | 340° |
| 2026-05-09 02:41 | 18.42618 | -69.66963 | 71 ft | 21 kts | 339° |
| 2026-05-09 02:41 | 18.42765 | -69.67015 | 71 ft | 23 kts | 341° |
| 2026-05-09 02:41 | 18.42900 | -69.67064 | 73 ft | 12 kts | 341° |
| 2026-05-09 02:42 | 18.42946 | -69.67118 | 67 ft | 11 kts | 287° |
| 2026-05-09 02:42 | 18.42955 | -69.67196 | 66 ft | 14 kts | 274° |
| 2026-05-09 02:42 | 18.42959 | -69.67243 | 62 ft | 7 kts | 275° |
| 2026-05-09 02:42 | 18.42965 | -69.67304 | 65 ft | 10 kts | 277° |
| 2026-05-09 02:43 | 18.42977 | -69.67371 | 63 ft | 6 kts | 302° |
| 2026-05-09 02:43 | 18.43015 | -69.67414 | 64 ft | 9 kts | 318° |
| 2026-05-09 02:43 | 18.43064 | -69.67440 | 66 ft | 7 kts | 341° |
| 2026-05-09 02:43 | 18.43122 | -69.67462 | 66 ft | 10 kts | 339° |
| 2026-05-09 02:44 | 18.43168 | -69.67480 | 64 ft | 7 kts | 329° |
| 2026-05-09 02:44 | 18.43182 | -69.67514 | 67 ft | 3 kts | 264° |
| 2026-05-09 02:44 | 18.43174 | -69.67536 | 66 ft | 3 kts | 245° |
| 2026-05-09 02:44 | 18.43162 | -69.67564 | 68 ft | 5 kts | 245° |
| 2026-05-09 02:45 | 18.43156 | -69.67577 | 66 ft | 0 kts | 245° |
| 2026-05-09 02:48 | 18.43165 | -69.67558 | 67 ft | 0 kts | 245° |